sensor_id;sensor_type;location;lat;lon;timestamp;pressure;altitude;pressure_sealevel;temperature;humidity
70011;BME280;59543;37.950;-122.338;2023-04-20T00:00:49;102112.28;;;16.76;36.98
70011;BME280;59543;37.950;-122.338;2023-04-20T00:03:15;102114.78;;;16.59;37.21
70011;BME280;59543;37.950;-122.338;2023-04-20T00:05:46;102119.19;;;16.60;37.39
70011;BME280;59543;37.950;-122.338;2023-04-20T00:08:15;102119.50;;;16.57;36.95
70011;BME280;59543;37.950;-122.338;2023-04-20T00:10:43;102118.22;;;16.61;37.40
70011;BME280;59543;37.950;-122.338;2023-04-20T00:13:09;102121.53;;;16.37;37.71
70011;BME280;59543;37.950;-122.338;2023-04-20T00:15:36;102122.16;;;16.49;36.91
70011;BME280;59543;37.950;-122.338;2023-04-20T00:18:02;102117.50;;;16.59;37.22
70011;BME280;59543;37.950;-122.338;2023-04-20T00:20:29;102124.69;;;16.33;37.62
70011;BME280;59543;37.950;-122.338;2023-04-20T00:22:55;102112.91;;;16.42;38.09
70011;BME280;59543;37.950;-122.338;2023-04-20T00:25:21;102125.63;;;16.23;37.52
70011;BME280;59543;37.950;-122.338;2023-04-20T00:27:47;102119.91;;;15.99;38.44
70011;BME280;59543;37.950;-122.338;2023-04-20T00:30:14;102123.41;;;16.09;38.68
70011;BME280;59543;37.950;-122.338;2023-04-20T00:32:40;102126.59;;;16.05;39.30
70011;BME280;59543;37.950;-122.338;2023-04-20T00:35:06;102134.88;;;16.03;39.46
70011;BME280;59543;37.950;-122.338;2023-04-20T00:37:33;102118.19;;;15.98;38.62
70011;BME280;59543;37.950;-122.338;2023-04-20T00:39:59;102121.59;;;15.72;40.54
70011;BME280;59543;37.950;-122.338;2023-04-20T00:42:25;102128.09;;;15.89;40.74
70011;BME280;59543;37.950;-122.338;2023-04-20T00:44:51;102131.41;;;15.83;40.99
70011;BME280;59543;37.950;-122.338;2023-04-20T00:47:18;102125.38;;;15.89;40.93
70011;BME280;59543;37.950;-122.338;2023-04-20T00:49:44;102123.22;;;15.93;40.82
70011;BME280;59543;37.950;-122.338;2023-04-20T00:52:10;102121.22;;;15.95;39.39
70011;BME280;59543;37.950;-122.338;2023-04-20T00:54:38;102107.25;;;15.90;40.05
70011;BME280;59543;37.950;-122.338;2023-04-20T00:57:04;102114.56;;;16.07;40.74
70011;BME280;59543;37.950;-122.338;2023-04-20T00:59:31;102117.00;;;16.10;40.45
70011;BME280;59543;37.950;-122.338;2023-04-20T01:01:57;102124.06;;;15.93;40.37
70011;BME280;59543;37.950;-122.338;2023-04-20T01:04:24;102120.81;;;15.43;40.74
70011;BME280;59543;37.950;-122.338;2023-04-20T01:06:51;102118.25;;;15.41;41.80
70011;BME280;59543;37.950;-122.338;2023-04-20T01:09:17;102132.59;;;15.61;41.48
70011;BME280;59543;37.950;-122.338;2023-04-20T01:11:43;102131.47;;;15.54;41.55
70011;BME280;59543;37.950;-122.338;2023-04-20T01:14:10;102125.66;;;15.39;41.19
70011;BME280;59543;37.950;-122.338;2023-04-20T01:16:36;102134.97;;;15.27;41.76
70011;BME280;59543;37.950;-122.338;2023-04-20T01:19:02;102131.72;;;15.23;41.59
70011;BME280;59543;37.950;-122.338;2023-04-20T01:21:29;102134.81;;;15.38;42.17
70011;BME280;59543;37.950;-122.338;2023-04-20T01:23:55;102135.94;;;15.45;41.35
70011;BME280;59543;37.950;-122.338;2023-04-20T01:26:22;102133.47;;;15.52;41.54
70011;BME280;59543;37.950;-122.338;2023-04-20T01:28:49;102138.19;;;15.60;41.99
70011;BME280;59543;37.950;-122.338;2023-04-20T01:31:15;102139.47;;;15.55;41.66
70011;BME280;59543;37.950;-122.338;2023-04-20T01:33:41;102145.16;;;15.62;40.49
70011;BME280;59543;37.950;-122.338;2023-04-20T01:36:08;102142.09;;;15.38;41.92
70011;BME280;59543;37.950;-122.338;2023-04-20T01:38:35;102145.94;;;15.45;40.90
70011;BME280;59543;37.950;-122.338;2023-04-20T01:41:03;102137.16;;;15.14;41.04
70011;BME280;59543;37.950;-122.338;2023-04-20T01:43:31;102144.31;;;14.95;42.30
70011;BME280;59543;37.950;-122.338;2023-04-20T01:45:58;102148.25;;;15.20;41.76
70011;BME280;59543;37.950;-122.338;2023-04-20T01:48:25;102152.97;;;14.89;42.07
70011;BME280;59543;37.950;-122.338;2023-04-20T01:50:52;102149.69;;;14.85;41.90
70011;BME280;59543;37.950;-122.338;2023-04-20T01:53:18;102155.69;;;14.79;42.24
70011;BME280;59543;37.950;-122.338;2023-04-20T01:55:44;102155.13;;;14.56;42.50
70011;BME280;59543;37.950;-122.338;2023-04-20T01:58:11;102151.88;;;14.32;43.00
70011;BME280;59543;37.950;-122.338;2023-04-20T02:00:37;102160.16;;;14.30;43.86
70011;BME280;59543;37.950;-122.338;2023-04-20T02:03:03;102160.44;;;14.37;43.71
70011;BME280;59543;37.950;-122.338;2023-04-20T02:05:29;102159.31;;;14.30;43.25
70011;BME280;59543;37.950;-122.338;2023-04-20T02:07:56;102165.56;;;14.21;43.19
70011;BME280;59543;37.950;-122.338;2023-04-20T02:10:22;102166.88;;;13.95;44.63
70011;BME280;59543;37.950;-122.338;2023-04-20T02:12:49;102168.53;;;13.87;44.63
70011;BME280;59543;37.950;-122.338;2023-04-20T02:15:15;102165.44;;;13.91;44.80
70011;BME280;59543;37.950;-122.338;2023-04-20T02:17:42;102179.97;;;13.90;44.28
70011;BME280;59543;37.950;-122.338;2023-04-20T02:20:09;102179.97;;;13.90;44.26
70011;BME280;59543;37.950;-122.338;2023-04-20T02:22:36;102180.88;;;13.49;45.29
70011;BME280;59543;37.950;-122.338;2023-04-20T02:25:06;102182.63;;;13.60;45.58
70011;BME280;59543;37.950;-122.338;2023-04-20T02:27:33;102179.16;;;13.69;45.75
70011;BME280;59543;37.950;-122.338;2023-04-20T02:29:59;102184.69;;;13.46;45.57
70011;BME280;59543;37.950;-122.338;2023-04-20T02:32:26;102183.44;;;13.30;45.41
70011;BME280;59543;37.950;-122.338;2023-04-20T02:34:52;102191.44;;;13.20;45.54
70011;BME280;59543;37.950;-122.338;2023-04-20T02:37:18;102184.59;;;12.95;45.87
70011;BME280;59543;37.950;-122.338;2023-04-20T02:39:45;102186.84;;;13.11;45.70
70011;BME280;59543;37.950;-122.338;2023-04-20T02:42:11;102191.69;;;12.96;46.17
70011;BME280;59543;37.950;-122.338;2023-04-20T02:44:37;102195.31;;;12.85;46.52
70011;BME280;59543;37.950;-122.338;2023-04-20T02:47:04;102197.00;;;12.86;46.78
70011;BME280;59543;37.950;-122.338;2023-04-20T02:49:30;102207.44;;;12.91;47.22
70011;BME280;59543;37.950;-122.338;2023-04-20T02:51:56;102215.81;;;12.88;47.27
70011;BME280;59543;37.950;-122.338;2023-04-20T02:54:22;102223.44;;;12.71;47.70
70011;BME280;59543;37.950;-122.338;2023-04-20T02:56:48;102228.00;;;12.59;48.55
70011;BME280;59543;37.950;-122.338;2023-04-20T02:59:15;102224.19;;;12.62;48.28
70011;BME280;59543;37.950;-122.338;2023-04-20T03:01:41;102218.31;;;12.57;48.50
70011;BME280;59543;37.950;-122.338;2023-04-20T03:04:07;102222.75;;;12.58;47.10
70011;BME280;59543;37.950;-122.338;2023-04-20T03:06:34;102239.06;;;12.56;46.93
70011;BME280;59543;37.950;-122.338;2023-04-20T03:09:01;102234.91;;;12.41;47.69
70011;BME280;59543;37.950;-122.338;2023-04-20T03:11:28;102244.00;;;12.29;48.38
70011;BME280;59543;37.950;-122.338;2023-04-20T03:13:55;102237.38;;;12.33;48.68
70011;BME280;59543;37.950;-122.338;2023-04-20T03:16:21;102234.41;;;12.36;48.06
70011;BME280;59543;37.950;-122.338;2023-04-20T03:18:48;102239.09;;;12.34;48.44
70011;BME280;59543;37.950;-122.338;2023-04-20T03:21:14;102237.03;;;12.04;49.56
70011;BME280;59543;37.950;-122.338;2023-04-20T03:23:41;102239.94;;;12.12;49.10
70011;BME280;59543;37.950;-122.338;2023-04-20T03:26:07;102245.47;;;12.10;49.29
70011;BME280;59543;37.950;-122.338;2023-04-20T03:28:33;102237.75;;;12.06;49.51
70011;BME280;59543;37.950;-122.338;2023-04-20T03:30:59;102243.75;;;11.87;49.85
70011;BME280;59543;37.950;-122.338;2023-04-20T03:33:26;102250.56;;;11.80;49.85
70011;BME280;59543;37.950;-122.338;2023-04-20T03:35:52;102246.22;;;11.55;50.81
70011;BME280;59543;37.950;-122.338;2023-04-20T03:38:19;102254.94;;;11.58;51.16
70011;BME280;59543;37.950;-122.338;2023-04-20T03:40:45;102255.84;;;11.46;51.77
70011;BME280;59543;37.950;-122.338;2023-04-20T03:43:12;102265.63;;;11.36;52.41
70011;BME280;59543;37.950;-122.338;2023-04-20T03:45:38;102265.53;;;11.37;52.27
70011;BME280;59543;37.950;-122.338;2023-04-20T03:48:04;102261.94;;;11.37;52.43
70011;BME280;59543;37.950;-122.338;2023-04-20T03:50:30;102266.38;;;11.38;52.26
70011;BME280;59543;37.950;-122.338;2023-04-20T03:52:57;102272.72;;;11.37;52.55
70011;BME280;59543;37.950;-122.338;2023-04-20T03:55:23;102267.41;;;11.24;52.70
70011;BME280;59543;37.950;-122.338;2023-04-20T03:57:49;102272.13;;;11.09;53.28
70011;BME280;59543;37.950;-122.338;2023-04-20T04:00:15;102278.94;;;11.26;52.70
70011;BME280;59543;37.950;-122.338;2023-04-20T04:02:42;102283.34;;;11.27;52.65
70011;BME280;59543;37.950;-122.338;2023-04-20T04:05:08;102283.59;;;11.24;52.78
70011;BME280;59543;37.950;-122.338;2023-04-20T04:07:34;102292.25;;;11.16;52.94
70011;BME280;59543;37.950;-122.338;2023-04-20T04:10:00;102297.69;;;11.04;53.21
70011;BME280;59543;37.950;-122.338;2023-04-20T04:12:29;102298.97;;;11.11;53.36
70011;BME280;59543;37.950;-122.338;2023-04-20T04:14:55;102302.59;;;11.10;53.32
70011;BME280;59543;37.950;-122.338;2023-04-20T04:17:22;102309.81;;;11.09;53.37
70011;BME280;59543;37.950;-122.338;2023-04-20T04:19:48;102319.91;;;10.94;53.95
70011;BME280;59543;37.950;-122.338;2023-04-20T04:22:14;102314.41;;;10.96;54.12
70011;BME280;59543;37.950;-122.338;2023-04-20T04:24:40;102316.13;;;10.97;54.27
70011;BME280;59543;37.950;-122.338;2023-04-20T04:27:07;102323.41;;;10.84;54.54
70011;BME280;59543;37.950;-122.338;2023-04-20T04:29:33;102325.88;;;10.87;55.02
70011;BME280;59543;37.950;-122.338;2023-04-20T04:32:01;102324.88;;;10.88;54.76
70011;BME280;59543;37.950;-122.338;2023-04-20T04:34:28;102331.66;;;10.93;54.92
70011;BME280;59543;37.950;-122.338;2023-04-20T04:36:55;102321.97;;;10.91;55.09
70011;BME280;59543;37.950;-122.338;2023-04-20T04:39:21;102329.09;;;10.79;54.64
70011;BME280;59543;37.950;-122.338;2023-04-20T04:41:48;102339.31;;;10.87;54.88
70011;BME280;59543;37.950;-122.338;2023-04-20T04:44:14;102340.97;;;10.64;55.95
70011;BME280;59543;37.950;-122.338;2023-04-20T04:46:41;102343.81;;;10.37;57.18
70011;BME280;59543;37.950;-122.338;2023-04-20T04:49:12;102353.50;;;10.26;58.01
70011;BME280;59543;37.950;-122.338;2023-04-20T04:51:38;102348.63;;;10.19;58.24
70011;BME280;59543;37.950;-122.338;2023-04-20T04:54:05;102348.06;;;10.14;57.99
70011;BME280;59543;37.950;-122.338;2023-04-20T04:56:31;102342.94;;;10.23;57.83
70011;BME280;59543;37.950;-122.338;2023-04-20T04:58:57;102336.38;;;10.15;59.15
70011;BME280;59543;37.950;-122.338;2023-04-20T05:01:23;102337.31;;;10.14;57.95
70011;BME280;59543;37.950;-122.338;2023-04-20T05:03:49;102340.91;;;10.27;57.31
70011;BME280;59543;37.950;-122.338;2023-04-20T05:06:16;102347.06;;;10.29;57.13
70011;BME280;59543;37.950;-122.338;2023-04-20T05:08:42;102338.28;;;10.25;57.08
70011;BME280;59543;37.950;-122.338;2023-04-20T05:11:08;102341.28;;;9.82;58.66
70011;BME280;59543;37.950;-122.338;2023-04-20T05:13:35;102341.31;;;9.55;60.43
70011;BME280;59543;37.950;-122.338;2023-04-20T05:16:01;102343.50;;;9.63;59.92
70011;BME280;59543;37.950;-122.338;2023-04-20T05:18:28;102345.38;;;9.48;60.74
70011;BME280;59543;37.950;-122.338;2023-04-20T05:20:54;102349.91;;;9.48;60.80
70011;BME280;59543;37.950;-122.338;2023-04-20T05:23:20;102339.53;;;9.42;61.06
70011;BME280;59543;37.950;-122.338;2023-04-20T05:25:46;102334.53;;;9.50;60.41
70011;BME280;59543;37.950;-122.338;2023-04-20T05:28:12;102341.03;;;9.60;60.10
70011;BME280;59543;37.950;-122.338;2023-04-20T05:30:39;102344.84;;;9.56;60.31
70011;BME280;59543;37.950;-122.338;2023-04-20T05:33:05;102348.38;;;9.16;61.61
70011;BME280;59543;37.950;-122.338;2023-04-20T05:35:31;102354.28;;;8.95;62.28
70011;BME280;59543;37.950;-122.338;2023-04-20T05:37:57;102367.44;;;8.85;63.10
70011;BME280;59543;37.950;-122.338;2023-04-20T05:40:27;102370.13;;;8.70;63.47
70011;BME280;59543;37.950;-122.338;2023-04-20T05:42:53;102369.94;;;8.59;63.80
70011;BME280;59543;37.950;-122.338;2023-04-20T05:45:20;102368.69;;;8.79;63.54
70011;BME280;59543;37.950;-122.338;2023-04-20T05:47:53;102373.78;;;8.55;64.08
70011;BME280;59543;37.950;-122.338;2023-04-20T05:50:20;102370.38;;;8.37;64.94
70011;BME280;59543;37.950;-122.338;2023-04-20T05:52:47;102381.94;;;8.23;64.88
70011;BME280;59543;37.950;-122.338;2023-04-20T05:55:14;102370.66;;;8.18;65.41
70011;BME280;59543;37.950;-122.338;2023-04-20T05:57:41;102366.34;;;8.16;65.10
70011;BME280;59543;37.950;-122.338;2023-04-20T06:00:10;102360.69;;;8.20;65.33
70011;BME280;59543;37.950;-122.338;2023-04-20T06:02:36;102362.69;;;8.17;65.46
70011;BME280;59543;37.950;-122.338;2023-04-20T06:05:03;102364.13;;;8.08;65.47
70011;BME280;59543;37.950;-122.338;2023-04-20T06:07:29;102366.50;;;7.98;65.47
70011;BME280;59543;37.950;-122.338;2023-04-20T06:09:55;102376.91;;;7.89;65.88
70011;BME280;59543;37.950;-122.338;2023-04-20T06:12:22;102380.63;;;7.86;65.85
70011;BME280;59543;37.950;-122.338;2023-04-20T06:14:48;102382.66;;;7.97;66.44
70011;BME280;59543;37.950;-122.338;2023-04-20T06:17:14;102387.13;;;8.12;65.95
70011;BME280;59543;37.950;-122.338;2023-04-20T06:19:40;102383.19;;;8.18;65.56
70011;BME280;59543;37.950;-122.338;2023-04-20T06:22:09;102387.22;;;8.25;65.32
70011;BME280;59543;37.950;-122.338;2023-04-20T06:24:35;102396.69;;;8.16;65.73
70011;BME280;59543;37.950;-122.338;2023-04-20T06:27:03;102393.28;;;7.98;65.75
70011;BME280;59543;37.950;-122.338;2023-04-20T06:29:30;102392.81;;;7.76;66.69
70011;BME280;59543;37.950;-122.338;2023-04-20T06:31:56;102389.84;;;7.66;67.17
70011;BME280;59543;37.950;-122.338;2023-04-20T06:34:22;102396.06;;;7.67;67.62
70011;BME280;59543;37.950;-122.338;2023-04-20T06:36:49;102394.16;;;7.69;67.20
70011;BME280;59543;37.950;-122.338;2023-04-20T06:39:15;102398.78;;;7.81;67.40
70011;BME280;59543;37.950;-122.338;2023-04-20T06:41:42;102401.78;;;7.91;66.88
70011;BME280;59543;37.950;-122.338;2023-04-20T06:44:08;102397.88;;;7.96;66.80
70011;BME280;59543;37.950;-122.338;2023-04-20T06:46:35;102394.25;;;7.97;67.22
70011;BME280;59543;37.950;-122.338;2023-04-20T06:49:01;102400.69;;;7.79;67.13
70011;BME280;59543;37.950;-122.338;2023-04-20T06:51:28;102394.75;;;7.74;66.95
70011;BME280;59543;37.950;-122.338;2023-04-20T06:53:55;102393.16;;;7.55;67.86
70011;BME280;59543;37.950;-122.338;2023-04-20T06:56:21;102391.94;;;7.45;68.34
70011;BME280;59543;37.950;-122.338;2023-04-20T06:58:47;102399.97;;;7.45;69.02
70011;BME280;59543;37.950;-122.338;2023-04-20T07:01:13;102392.97;;;7.59;68.96
70011;BME280;59543;37.950;-122.338;2023-04-20T07:03:39;102391.66;;;7.66;68.23
70011;BME280;59543;37.950;-122.338;2023-04-20T07:06:06;102382.28;;;7.73;68.37
70011;BME280;59543;37.950;-122.338;2023-04-20T07:08:32;102379.72;;;7.71;68.63
70011;BME280;59543;37.950;-122.338;2023-04-20T07:10:58;102388.97;;;7.66;68.35
70011;BME280;59543;37.950;-122.338;2023-04-20T07:13:25;102381.91;;;7.65;68.52
70011;BME280;59543;37.950;-122.338;2023-04-20T07:15:53;102381.13;;;7.63;68.51
70011;BME280;59543;37.950;-122.338;2023-04-20T07:18:20;102391.84;;;7.63;68.76
70011;BME280;59543;37.950;-122.338;2023-04-20T07:20:45;102392.97;;;7.59;68.92
70011;BME280;59543;37.950;-122.338;2023-04-20T07:23:12;102395.47;;;7.62;69.28
70011;BME280;59543;37.950;-122.338;2023-04-20T07:25:38;102400.28;;;7.71;68.66
70011;BME280;59543;37.950;-122.338;2023-04-20T07:28:04;102393.91;;;7.73;68.76
70011;BME280;59543;37.950;-122.338;2023-04-20T07:30:30;102399.63;;;7.67;69.20
70011;BME280;59543;37.950;-122.338;2023-04-20T07:32:56;102399.06;;;7.76;68.85
70011;BME280;59543;37.950;-122.338;2023-04-20T07:35:23;102402.31;;;7.82;68.41
70011;BME280;59543;37.950;-122.338;2023-04-20T07:37:49;102399.56;;;7.83;68.47
70011;BME280;59543;37.950;-122.338;2023-04-20T07:40:15;102400.00;;;7.75;69.08
70011;BME280;59543;37.950;-122.338;2023-04-20T07:42:42;102399.66;;;7.82;69.21
70011;BME280;59543;37.950;-122.338;2023-04-20T07:45:09;102406.66;;;7.84;69.06
70011;BME280;59543;37.950;-122.338;2023-04-20T07:47:36;102404.16;;;7.81;69.18
70011;BME280;59543;37.950;-122.338;2023-04-20T07:50:03;102408.41;;;7.69;70.46
70011;BME280;59543;37.950;-122.338;2023-04-20T07:52:30;102407.13;;;7.61;71.26
70011;BME280;59543;37.950;-122.338;2023-04-20T07:54:56;102404.69;;;7.72;70.02
70011;BME280;59543;37.950;-122.338;2023-04-20T07:57:24;102392.25;;;7.71;69.87
70011;BME280;59543;37.950;-122.338;2023-04-20T07:59:51;102399.69;;;7.66;69.86
70011;BME280;59543;37.950;-122.338;2023-04-20T08:02:17;102399.63;;;7.67;69.74
70011;BME280;59543;37.950;-122.338;2023-04-20T08:04:43;102404.25;;;7.64;70.45
70011;BME280;59543;37.950;-122.338;2023-04-20T08:07:11;102408.59;;;7.66;70.27
70011;BME280;59543;37.950;-122.338;2023-04-20T08:09:37;102404.38;;;7.62;70.57
70011;BME280;59543;37.950;-122.338;2023-04-20T08:12:04;102402.81;;;7.42;72.43
70011;BME280;59543;37.950;-122.338;2023-04-20T08:14:30;102397.97;;;7.49;71.75
70011;BME280;59543;37.950;-122.338;2023-04-20T08:16:57;102398.41;;;7.57;72.07
70011;BME280;59543;37.950;-122.338;2023-04-20T08:19:23;102396.69;;;7.56;71.54
70011;BME280;59543;37.950;-122.338;2023-04-20T08:21:50;102392.44;;;7.52;71.67
70011;BME280;59543;37.950;-122.338;2023-04-20T08:24:16;102395.22;;;7.50;71.48
70011;BME280;59543;37.950;-122.338;2023-04-20T08:26:42;102397.03;;;7.50;71.08
70011;BME280;59543;37.950;-122.338;2023-04-20T08:29:08;102392.41;;;7.38;72.01
70011;BME280;59543;37.950;-122.338;2023-04-20T08:31:34;102397.22;;;7.31;72.24
70011;BME280;59543;37.950;-122.338;2023-04-20T08:34:01;102405.09;;;7.34;71.90
70011;BME280;59543;37.950;-122.338;2023-04-20T08:36:27;102406.38;;;7.27;72.15
70011;BME280;59543;37.950;-122.338;2023-04-20T08:39:07;102402.84;;;7.10;74.07
70011;BME280;59543;37.950;-122.338;2023-04-20T08:41:34;102409.91;;;7.12;73.60
70011;BME280;59543;37.950;-122.338;2023-04-20T08:44:01;102403.53;;;7.14;74.01
70011;BME280;59543;37.950;-122.338;2023-04-20T08:46:28;102403.09;;;7.06;74.37
70011;BME280;59543;37.950;-122.338;2023-04-20T08:48:54;102411.13;;;7.06;73.86
70011;BME280;59543;37.950;-122.338;2023-04-20T08:51:22;102416.22;;;7.10;74.02
70011;BME280;59543;37.950;-122.338;2023-04-20T08:53:49;102419.13;;;6.90;75.42
70011;BME280;59543;37.950;-122.338;2023-04-20T08:56:15;102417.59;;;6.86;76.02
70011;BME280;59543;37.950;-122.338;2023-04-20T08:58:41;102412.16;;;6.87;75.65
70011;BME280;59543;37.950;-122.338;2023-04-20T09:01:09;102410.78;;;6.96;75.16
70011;BME280;59543;37.950;-122.338;2023-04-20T09:03:40;102409.44;;;6.72;76.54
70011;BME280;59543;37.950;-122.338;2023-04-20T09:06:17;102414.81;;;6.87;75.27
70011;BME280;59543;37.950;-122.338;2023-04-20T09:08:44;102412.16;;;6.87;74.84
70011;BME280;59543;37.950;-122.338;2023-04-20T09:11:28;102420.50;;;6.81;75.57
70011;BME280;59543;37.950;-122.338;2023-04-20T09:13:59;102421.88;;;6.73;76.08
70011;BME280;59543;37.950;-122.338;2023-04-20T09:16:25;102416.88;;;6.82;75.19
70011;BME280;59543;37.950;-122.338;2023-04-20T09:18:55;102414.47;;;6.78;75.24
70011;BME280;59543;37.950;-122.338;2023-04-20T09:21:23;102418.84;;;6.79;76.08
70011;BME280;59543;37.950;-122.338;2023-04-20T09:24:05;102421.19;;;6.85;77.02
70011;BME280;59543;37.950;-122.338;2023-04-20T09:26:32;102422.34;;;6.97;77.91
70011;BME280;59543;37.950;-122.338;2023-04-20T09:29:03;102418.28;;;7.21;78.28
70011;BME280;59543;37.950;-122.338;2023-04-20T09:31:30;102421.31;;;7.47;77.31
70011;BME280;59543;37.950;-122.338;2023-04-20T09:33:56;102420.28;;;7.49;76.97
70011;BME280;59543;37.950;-122.338;2023-04-20T09:36:23;102425.88;;;7.61;76.00
70011;BME280;59543;37.950;-122.338;2023-04-20T09:39:02;102427.78;;;7.59;76.33
70011;BME280;59543;37.950;-122.338;2023-04-20T09:41:29;102421.81;;;7.53;76.15
70011;BME280;59543;37.950;-122.338;2023-04-20T09:43:56;102430.91;;;7.51;76.54
70011;BME280;59543;37.950;-122.338;2023-04-20T09:46:24;102417.84;;;7.45;76.85
70011;BME280;59543;37.950;-122.338;2023-04-20T09:48:53;102412.69;;;7.42;77.58
70011;BME280;59543;37.950;-122.338;2023-04-20T09:51:20;102413.78;;;7.53;77.71
70011;BME280;59543;37.950;-122.338;2023-04-20T09:53:48;102406.44;;;7.57;77.77
70011;BME280;59543;37.950;-122.338;2023-04-20T09:56:16;102410.19;;;7.85;76.18
70011;BME280;59543;37.950;-122.338;2023-04-20T09:58:44;102409.31;;;7.84;75.61
70011;BME280;59543;37.950;-122.338;2023-04-20T10:01:12;102400.16;;;7.88;74.86
70011;BME280;59543;37.950;-122.338;2023-04-20T10:03:42;102396.53;;;7.89;74.54
70011;BME280;59543;37.950;-122.338;2023-04-20T10:06:25;102389.84;;;7.96;73.56
70011;BME280;59543;37.950;-122.338;2023-04-20T10:08:53;102398.78;;;7.81;73.69
70011;BME280;59543;37.950;-122.338;2023-04-20T10:13:50;102410.81;;;8.04;72.75
70011;BME280;59543;37.950;-122.338;2023-04-20T10:16:20;102408.09;;;7.90;72.82
70011;BME280;59543;37.950;-122.338;2023-04-20T10:19:15;102415.00;;;7.94;72.70
70011;BME280;59543;37.950;-122.338;2023-04-20T10:21:49;102413.03;;;7.97;72.62
70011;BME280;59543;37.950;-122.338;2023-04-20T10:24:28;102414.81;;;7.97;72.69
70011;BME280;59543;37.950;-122.338;2023-04-20T10:26:54;102404.63;;;8.04;72.55
70011;BME280;59543;37.950;-122.338;2023-04-20T10:29:28;102417.03;;;8.05;72.35
70011;BME280;59543;37.950;-122.338;2023-04-20T10:31:54;102403.28;;;8.11;71.83
70011;BME280;59543;37.950;-122.338;2023-04-20T10:34:35;102398.88;;;8.10;71.42
70011;BME280;59543;37.950;-122.338;2023-04-20T10:37:09;102399.25;;;8.04;71.65
70011;BME280;59543;37.950;-122.338;2023-04-20T10:39:45;102398.09;;;8.08;71.77
70011;BME280;59543;37.950;-122.338;2023-04-20T10:42:12;102385.06;;;8.01;71.86
70011;BME280;59543;37.950;-122.338;2023-04-20T10:44:48;102391.09;;;8.05;71.71
70011;BME280;59543;37.950;-122.338;2023-04-20T10:47:15;102395.84;;;8.16;71.70
70011;BME280;59543;37.950;-122.338;2023-04-20T10:49:43;102389.94;;;8.09;71.83
70011;BME280;59543;37.950;-122.338;2023-04-20T10:52:09;102382.25;;;8.19;71.77
70011;BME280;59543;37.950;-122.338;2023-04-20T10:54:37;102386.22;;;8.12;71.86
70011;BME280;59543;37.950;-122.338;2023-04-20T10:57:04;102383.28;;;8.16;71.59
70011;BME280;59543;37.950;-122.338;2023-04-20T10:59:32;102384.59;;;8.09;71.99
70011;BME280;59543;37.950;-122.338;2023-04-20T11:02:07;102385.66;;;8.07;72.19
70011;BME280;59543;37.950;-122.338;2023-04-20T11:04:35;102376.19;;;8.01;71.85
70011;BME280;59543;37.950;-122.338;2023-04-20T11:07:06;102376.75;;;8.06;71.55
70011;BME280;59543;37.950;-122.338;2023-04-20T11:09:33;102387.13;;;8.12;71.78
70011;BME280;59543;37.950;-122.338;2023-04-20T11:12:09;102376.44;;;7.96;72.19
70011;BME280;59543;37.950;-122.338;2023-04-20T11:14:59;102378.47;;;8.07;71.73
70011;BME280;59543;37.950;-122.338;2023-04-20T11:17:35;102378.19;;;8.12;71.14
70011;BME280;59543;37.950;-122.338;2023-04-20T11:20:06;102378.06;;;7.99;71.66
70011;BME280;59543;37.950;-122.338;2023-04-20T11:22:42;102384.84;;;7.90;71.76
70011;BME280;59543;37.950;-122.338;2023-04-20T11:25:10;102385.81;;;7.89;72.30
70011;BME280;59543;37.950;-122.338;2023-04-20T11:27:38;102392.50;;;7.66;72.95
70011;BME280;59543;37.950;-122.338;2023-04-20T11:30:12;102394.41;;;7.80;73.05
70011;BME280;59543;37.950;-122.338;2023-04-20T11:32:38;102392.06;;;7.74;72.83
70011;BME280;59543;37.950;-122.338;2023-04-20T11:35:08;102387.81;;;7.86;72.24
70011;BME280;59543;37.950;-122.338;2023-04-20T11:38:01;102392.94;;;7.74;72.35
70011;BME280;59543;37.950;-122.338;2023-04-20T11:40:27;102391.47;;;7.69;72.77
70011;BME280;59543;37.950;-122.338;2023-04-20T11:42:54;102391.75;;;7.64;72.45
70011;BME280;59543;37.950;-122.338;2023-04-20T11:45:20;102385.75;;;7.75;71.98
70011;BME280;59543;37.950;-122.338;2023-04-20T11:47:46;102391.97;;;7.75;71.55
70011;BME280;59543;37.950;-122.338;2023-04-20T11:50:14;102391.91;;;7.77;71.48
70011;BME280;59543;37.950;-122.338;2023-04-20T11:52:40;102386.59;;;7.91;71.00
70011;BME280;59543;37.950;-122.338;2023-04-20T11:55:06;102393.44;;;7.81;71.46
70011;BME280;59543;37.950;-122.338;2023-04-20T11:57:33;102395.19;;;7.66;72.51
70011;BME280;59543;37.950;-122.338;2023-04-20T11:59:59;102403.50;;;7.62;73.00
70011;BME280;59543;37.950;-122.338;2023-04-20T12:02:25;102395.97;;;7.68;72.95
70011;BME280;59543;37.950;-122.338;2023-04-20T12:04:52;102403.03;;;7.69;73.85
70011;BME280;59543;37.950;-122.338;2023-04-20T12:07:18;102398.59;;;7.54;74.39
70011;BME280;59543;37.950;-122.338;2023-04-20T12:09:44;102400.75;;;7.47;74.68
70011;BME280;59543;37.950;-122.338;2023-04-20T12:12:10;102398.22;;;7.60;74.26
70011;BME280;59543;37.950;-122.338;2023-04-20T12:14:36;102410.75;;;7.60;74.27
70011;BME280;59543;37.950;-122.338;2023-04-20T12:17:02;102412.66;;;7.57;74.47
70011;BME280;59543;37.950;-122.338;2023-04-20T12:19:29;102401.38;;;7.52;74.55
70011;BME280;59543;37.950;-122.338;2023-04-20T12:21:56;102402.81;;;7.42;74.87
70011;BME280;59543;37.950;-122.338;2023-04-20T12:24:22;102408.50;;;7.52;74.87
70011;BME280;59543;37.950;-122.338;2023-04-20T12:26:49;102405.25;;;7.47;74.44
70011;BME280;59543;37.950;-122.338;2023-04-20T12:29:15;102400.66;;;7.49;74.22